sensor_id;sensor_type;location;lat;lon;timestamp;P1;durP1;ratioP1;P2;durP2;ratioP2
1258;SDS011;619;51.472;6.628;2023-05-10T00:00:38;10.27;;;9.10;;
1258;SDS011;619;51.472;6.628;2023-05-10T00:03:08;9.40;;;8.47;;
1258;SDS011;619;51.472;6.628;2023-05-10T00:05:34;9.57;;;8.67;;
1258;SDS011;619;51.472;6.628;2023-05-10T00:08:02;9.00;;;8.20;;
1258;SDS011;619;51.472;6.628;2023-05-10T00:10:30;9.70;;;8.80;;
1258;SDS011;619;51.472;6.628;2023-05-10T00:12:56;9.63;;;8.73;;
1258;SDS011;619;51.472;6.628;2023-05-10T00:15:24;10.33;;;9.20;;
1258;SDS011;619;51.472;6.628;2023-05-10T00:17:52;10.60;;;8.93;;
1258;SDS011;619;51.472;6.628;2023-05-10T00:20:20;8.50;;;7.70;;
1258;SDS011;619;51.472;6.628;2023-05-10T00:22:48;9.13;;;8.20;;
1258;SDS011;619;51.472;6.628;2023-05-10T00:25:16;9.80;;;8.90;;
1258;SDS011;619;51.472;6.628;2023-05-10T00:27:46;10.93;;;9.83;;
1258;SDS011;619;51.472;6.628;2023-05-10T00:30:12;11.13;;;9.30;;
1258;SDS011;619;51.472;6.628;2023-05-10T00:32:37;11.00;;;9.90;;
1258;SDS011;619;51.472;6.628;2023-05-10T00:35:03;9.87;;;8.87;;
1258;SDS011;619;51.472;6.628;2023-05-10T00:37:32;11.70;;;10.47;;
1258;SDS011;619;51.472;6.628;2023-05-10T00:39:58;10.97;;;9.97;;
1258;SDS011;619;51.472;6.628;2023-05-10T00:42:23;11.97;;;10.77;;
1258;SDS011;619;51.472;6.628;2023-05-10T00:44:51;11.30;;;10.03;;
1258;SDS011;619;51.472;6.628;2023-05-10T00:47:17;20.33;;;13.03;;
1258;SDS011;619;51.472;6.628;2023-05-10T00:49:45;11.73;;;10.60;;
1258;SDS011;619;51.472;6.628;2023-05-10T00:52:11;11.43;;;10.30;;
1258;SDS011;619;51.472;6.628;2023-05-10T00:54:38;13.23;;;11.83;;
1258;SDS011;619;51.472;6.628;2023-05-10T00:57:03;14.07;;;12.57;;
1258;SDS011;619;51.472;6.628;2023-05-10T00:59:33;12.23;;;11.03;;
1258;SDS011;619;51.472;6.628;2023-05-10T01:02:01;12.23;;;10.93;;
1258;SDS011;619;51.472;6.628;2023-05-10T01:04:27;13.57;;;12.07;;
1258;SDS011;619;51.472;6.628;2023-05-10T01:06:53;11.40;;;10.23;;
1258;SDS011;619;51.472;6.628;2023-05-10T01:12:51;11.17;;;10.03;;
1258;SDS011;619;51.472;6.628;2023-05-10T01:15:16;12.60;;;11.40;;
1258;SDS011;619;51.472;6.628;2023-05-10T01:17:44;12.07;;;10.87;;
1258;SDS011;619;51.472;6.628;2023-05-10T01:20:11;13.73;;;10.90;;
1258;SDS011;619;51.472;6.628;2023-05-10T01:43:37;14.73;;;10.60;;
1258;SDS011;619;51.472;6.628;2023-05-10T01:46:20;13.73;;;12.33;;
1258;SDS011;619;51.472;6.628;2023-05-10T01:48:56;13.47;;;12.07;;
1258;SDS011;619;51.472;6.628;2023-05-10T01:51:25;12.73;;;11.50;;
1258;SDS011;619;51.472;6.628;2023-05-10T01:53:58;15.00;;;12.77;;
1258;SDS011;619;51.472;6.628;2023-05-10T01:56:26;13.60;;;12.30;;
1258;SDS011;619;51.472;6.628;2023-05-10T01:58:55;15.07;;;13.57;;
1258;SDS011;619;51.472;6.628;2023-05-10T02:01:22;14.90;;;13.50;;
1258;SDS011;619;51.472;6.628;2023-05-10T02:03:53;16.40;;;13.90;;
1258;SDS011;619;51.472;6.628;2023-05-10T02:06:20;15.60;;;14.03;;
1258;SDS011;619;51.472;6.628;2023-05-10T02:08:49;14.80;;;13.40;;
1258;SDS011;619;51.472;6.628;2023-05-10T02:11:18;15.87;;;14.37;;
1258;SDS011;619;51.472;6.628;2023-05-10T02:13:46;14.67;;;13.23;;
1258;SDS011;619;51.472;6.628;2023-05-10T02:16:18;17.10;;;15.40;;
1258;SDS011;619;51.472;6.628;2023-05-10T02:18:48;15.27;;;13.67;;
1258;SDS011;619;51.472;6.628;2023-05-10T02:21:16;15.23;;;13.60;;
1258;SDS011;619;51.472;6.628;2023-05-10T02:23:45;15.33;;;13.80;;
1258;SDS011;619;51.472;6.628;2023-05-10T02:26:14;22.00;;;14.87;;
1258;SDS011;619;51.472;6.628;2023-05-10T02:28:41;16.17;;;14.50;;
1258;SDS011;619;51.472;6.628;2023-05-10T02:31:10;15.80;;;14.30;;
1258;SDS011;619;51.472;6.628;2023-05-10T02:33:39;13.50;;;12.17;;
1258;SDS011;619;51.472;6.628;2023-05-10T02:36:08;12.97;;;11.67;;
1258;SDS011;619;51.472;6.628;2023-05-10T02:38:37;13.50;;;12.10;;
1258;SDS011;619;51.472;6.628;2023-05-10T02:41:05;15.33;;;13.77;;
1258;SDS011;619;51.472;6.628;2023-05-10T02:43:33;13.70;;;12.30;;
1258;SDS011;619;51.472;6.628;2023-05-10T02:46:00;13.83;;;12.33;;
1258;SDS011;619;51.472;6.628;2023-05-10T02:48:27;14.73;;;13.13;;
1258;SDS011;619;51.472;6.628;2023-05-10T02:50:53;14.60;;;12.83;;
1258;SDS011;619;51.472;6.628;2023-05-10T02:53:22;15.43;;;13.67;;
1258;SDS011;619;51.472;6.628;2023-05-10T02:55:58;15.93;;;13.20;;
1258;SDS011;619;51.472;6.628;2023-05-10T02:58:31;11.17;;;9.63;;
1258;SDS011;619;51.472;6.628;2023-05-10T03:01:02;13.30;;;12.00;;
1258;SDS011;619;51.472;6.628;2023-05-10T03:03:32;12.63;;;11.23;;
1258;SDS011;619;51.472;6.628;2023-05-10T03:06:00;14.80;;;13.20;;
1258;SDS011;619;51.472;6.628;2023-05-10T03:08:28;17.00;;;13.23;;
1258;SDS011;619;51.472;6.628;2023-05-10T03:11:03;15.47;;;13.23;;
1258;SDS011;619;51.472;6.628;2023-05-10T03:13:36;16.03;;;13.77;;
1258;SDS011;619;51.472;6.628;2023-05-10T03:16:08;18.60;;;13.57;;
1258;SDS011;619;51.472;6.628;2023-05-10T03:18:44;14.33;;;12.60;;
1258;SDS011;619;51.472;6.628;2023-05-10T03:21:15;14.07;;;12.67;;
1258;SDS011;619;51.472;6.628;2023-05-10T03:26:20;15.80;;;13.13;;
1258;SDS011;619;51.472;6.628;2023-05-10T03:28:48;14.00;;;12.50;;
1258;SDS011;619;51.472;6.628;2023-05-10T03:31:17;14.37;;;11.90;;
1258;SDS011;619;51.472;6.628;2023-05-10T03:33:50;14.57;;;13.17;;
1258;SDS011;619;51.472;6.628;2023-05-10T03:36:19;13.80;;;12.40;;
1258;SDS011;619;51.472;6.628;2023-05-10T03:38:47;14.10;;;12.60;;
1258;SDS011;619;51.472;6.628;2023-05-10T03:41:15;13.93;;;11.93;;
1258;SDS011;619;51.472;6.628;2023-05-10T03:43:41;14.37;;;12.57;;
1258;SDS011;619;51.472;6.628;2023-05-10T03:46:06;16.30;;;13.67;;
1258;SDS011;619;51.472;6.628;2023-05-10T03:48:32;15.07;;;13.50;;
1258;SDS011;619;51.472;6.628;2023-05-10T03:50:58;14.50;;;12.63;;
1258;SDS011;619;51.472;6.628;2023-05-10T03:53:26;16.53;;;14.70;;
1258;SDS011;619;51.472;6.628;2023-05-10T03:55:54;18.03;;;14.90;;
1258;SDS011;619;51.472;6.628;2023-05-10T03:58:22;14.67;;;13.17;;
1258;SDS011;619;51.472;6.628;2023-05-10T04:00:50;14.80;;;13.20;;
1258;SDS011;619;51.472;6.628;2023-05-10T04:03:20;20.70;;;15.23;;
1258;SDS011;619;51.472;6.628;2023-05-10T04:05:46;20.57;;;14.23;;
1258;SDS011;619;51.472;6.628;2023-05-10T04:08:12;17.37;;;14.13;;
1258;SDS011;619;51.472;6.628;2023-05-10T04:10:37;17.50;;;13.83;;
1258;SDS011;619;51.472;6.628;2023-05-10T04:13:05;16.90;;;15.00;;
1258;SDS011;619;51.472;6.628;2023-05-10T04:15:31;16.10;;;14.50;;
1258;SDS011;619;51.472;6.628;2023-05-10T04:17:59;16.73;;;15.03;;
1258;SDS011;619;51.472;6.628;2023-05-10T04:20:25;18.00;;;15.03;;
1258;SDS011;619;51.472;6.628;2023-05-10T04:22:50;17.27;;;14.97;;
1258;SDS011;619;51.472;6.628;2023-05-10T04:25:16;18.20;;;16.20;;
1258;SDS011;619;51.472;6.628;2023-05-10T04:27:42;19.17;;;17.10;;
1258;SDS011;619;51.472;6.628;2023-05-10T04:30:07;19.63;;;17.63;;
1258;SDS011;619;51.472;6.628;2023-05-10T04:32:36;21.60;;;17.80;;
1258;SDS011;619;51.472;6.628;2023-05-10T04:35:01;22.07;;;19.53;;
1258;SDS011;619;51.472;6.628;2023-05-10T04:37:28;19.47;;;17.40;;
1258;SDS011;619;51.472;6.628;2023-05-10T04:39:56;24.57;;;19.63;;
1258;SDS011;619;51.472;6.628;2023-05-10T04:42:25;23.97;;;21.33;;
1258;SDS011;619;51.472;6.628;2023-05-10T04:44:53;22.03;;;18.60;;
1258;SDS011;619;51.472;6.628;2023-05-10T04:47:18;26.93;;;19.70;;
1258;SDS011;619;51.472;6.628;2023-05-10T04:49:47;24.67;;;20.70;;
1258;SDS011;619;51.472;6.628;2023-05-10T04:52:12;26.20;;;22.40;;
1258;SDS011;619;51.472;6.628;2023-05-10T04:54:42;23.63;;;21.23;;
1258;SDS011;619;51.472;6.628;2023-05-10T04:57:12;28.30;;;22.00;;
1258;SDS011;619;51.472;6.628;2023-05-10T04:59:40;22.77;;;19.97;;
1258;SDS011;619;51.472;6.628;2023-05-10T05:02:05;26.80;;;21.53;;
1258;SDS011;619;51.472;6.628;2023-05-10T05:04:31;23.87;;;20.73;;
1258;SDS011;619;51.472;6.628;2023-05-10T05:06:57;24.53;;;19.43;;
1258;SDS011;619;51.472;6.628;2023-05-10T05:09:22;24.10;;;20.00;;
1258;SDS011;619;51.472;6.628;2023-05-10T05:11:48;24.50;;;21.90;;
1258;SDS011;619;51.472;6.628;2023-05-10T05:14:13;23.90;;;20.20;;
1258;SDS011;619;51.472;6.628;2023-05-10T05:16:39;25.70;;;22.93;;
1258;SDS011;619;51.472;6.628;2023-05-10T05:19:07;25.57;;;21.47;;
1258;SDS011;619;51.472;6.628;2023-05-10T05:21:33;24.83;;;21.47;;
1258;SDS011;619;51.472;6.628;2023-05-10T05:24:01;25.93;;;22.10;;
1258;SDS011;619;51.472;6.628;2023-05-10T05:26:29;27.90;;;22.17;;
1258;SDS011;619;51.472;6.628;2023-05-10T05:28:57;23.83;;;21.33;;
1258;SDS011;619;51.472;6.628;2023-05-10T05:31:25;24.50;;;21.40;;
1258;SDS011;619;51.472;6.628;2023-05-10T05:33:53;24.30;;;21.80;;
1258;SDS011;619;51.472;6.628;2023-05-10T05:36:19;24.70;;;22.07;;
1258;SDS011;619;51.472;6.628;2023-05-10T05:38:44;26.23;;;23.33;;
1258;SDS011;619;51.472;6.628;2023-05-10T05:41:12;27.77;;;24.43;;
1258;SDS011;619;51.472;6.628;2023-05-10T05:43:38;27.97;;;23.83;;
1258;SDS011;619;51.472;6.628;2023-05-10T05:46:06;29.47;;;23.37;;
1258;SDS011;619;51.472;6.628;2023-05-10T05:48:34;30.30;;;24.83;;
1258;SDS011;619;51.472;6.628;2023-05-10T05:51:00;29.60;;;26.20;;
1258;SDS011;619;51.472;6.628;2023-05-10T05:53:25;31.43;;;25.27;;
1258;SDS011;619;51.472;6.628;2023-05-10T05:55:54;31.00;;;26.90;;
1258;SDS011;619;51.472;6.628;2023-05-10T05:58:22;31.63;;;27.50;;
1258;SDS011;619;51.472;6.628;2023-05-10T06:00:50;33.30;;;28.80;;
1258;SDS011;619;51.472;6.628;2023-05-10T06:03:20;31.30;;;26.57;;
1258;SDS011;619;51.472;6.628;2023-05-10T06:05:46;30.67;;;25.87;;
1258;SDS011;619;51.472;6.628;2023-05-10T06:08:13;32.67;;;27.37;;
1258;SDS011;619;51.472;6.628;2023-05-10T06:10:41;36.73;;;25.83;;
1258;SDS011;619;51.472;6.628;2023-05-10T06:13:10;31.20;;;26.60;;
1258;SDS011;619;51.472;6.628;2023-05-10T06:15:38;33.20;;;27.07;;
1258;SDS011;619;51.472;6.628;2023-05-10T06:18:03;31.37;;;25.10;;
1258;SDS011;619;51.472;6.628;2023-05-10T06:20:31;33.17;;;25.47;;
1258;SDS011;619;51.472;6.628;2023-05-10T06:22:57;36.80;;;26.40;;
1258;SDS011;619;51.472;6.628;2023-05-10T06:25:25;34.77;;;25.17;;
1258;SDS011;619;51.472;6.628;2023-05-10T06:27:55;34.33;;;26.97;;
1258;SDS011;619;51.472;6.628;2023-05-10T06:30:23;36.30;;;25.90;;
1258;SDS011;619;51.472;6.628;2023-05-10T06:32:53;39.13;;;29.70;;
1258;SDS011;619;51.472;6.628;2023-05-10T06:35:19;33.80;;;26.47;;
1258;SDS011;619;51.472;6.628;2023-05-10T06:37:47;34.33;;;27.63;;
1258;SDS011;619;51.472;6.628;2023-05-10T06:40:16;34.97;;;25.87;;
1258;SDS011;619;51.472;6.628;2023-05-10T06:42:42;34.20;;;26.20;;
1258;SDS011;619;51.472;6.628;2023-05-10T06:45:11;34.53;;;28.67;;
1258;SDS011;619;51.472;6.628;2023-05-10T06:47:37;35.57;;;29.43;;
1258;SDS011;619;51.472;6.628;2023-05-10T06:50:06;36.87;;;28.90;;
1258;SDS011;619;51.472;6.628;2023-05-10T06:52:35;33.20;;;25.80;;
1258;SDS011;619;51.472;6.628;2023-05-10T06:55:01;36.37;;;28.30;;
1258;SDS011;619;51.472;6.628;2023-05-10T06:57:27;35.80;;;28.60;;
1258;SDS011;619;51.472;6.628;2023-05-10T06:59:53;35.27;;;26.60;;
1258;SDS011;619;51.472;6.628;2023-05-10T07:02:20;31.13;;;25.03;;
1258;SDS011;619;51.472;6.628;2023-05-10T07:04:48;32.10;;;25.17;;
1258;SDS011;619;51.472;6.628;2023-05-10T07:07:16;36.57;;;27.37;;
1258;SDS011;619;51.472;6.628;2023-05-10T07:09:41;40.27;;;28.57;;
1258;SDS011;619;51.472;6.628;2023-05-10T07:12:09;34.10;;;27.20;;
1258;SDS011;619;51.472;6.628;2023-05-10T07:14:35;32.47;;;25.70;;
1258;SDS011;619;51.472;6.628;2023-05-10T07:17:01;32.30;;;25.07;;
1258;SDS011;619;51.472;6.628;2023-05-10T07:19:28;31.23;;;24.33;;
1258;SDS011;619;51.472;6.628;2023-05-10T07:21:57;30.77;;;24.40;;
1258;SDS011;619;51.472;6.628;2023-05-10T07:24:23;31.83;;;24.40;;
1258;SDS011;619;51.472;6.628;2023-05-10T07:26:49;33.83;;;24.40;;
1258;SDS011;619;51.472;6.628;2023-05-10T07:29:14;34.37;;;26.77;;
1258;SDS011;619;51.472;6.628;2023-05-10T07:31:43;30.50;;;25.53;;
1258;SDS011;619;51.472;6.628;2023-05-10T07:34:08;34.00;;;26.27;;
1258;SDS011;619;51.472;6.628;2023-05-10T07:36:36;41.10;;;29.30;;
1258;SDS011;619;51.472;6.628;2023-05-10T07:39:04;36.37;;;27.47;;
1258;SDS011;619;51.472;6.628;2023-05-10T07:41:32;35.37;;;27.63;;
1258;SDS011;619;51.472;6.628;2023-05-10T07:43:58;32.27;;;25.77;;
1258;SDS011;619;51.472;6.628;2023-05-10T07:46:26;37.90;;;26.87;;
1258;SDS011;619;51.472;6.628;2023-05-10T07:48:54;37.70;;;28.67;;
1258;SDS011;619;51.472;6.628;2023-05-10T07:51:19;37.00;;;27.00;;
1258;SDS011;619;51.472;6.628;2023-05-10T07:53:45;42.70;;;28.00;;
1258;SDS011;619;51.472;6.628;2023-05-10T07:56:20;36.70;;;27.13;;
1258;SDS011;619;51.472;6.628;2023-05-10T07:58:48;35.43;;;27.13;;
1258;SDS011;619;51.472;6.628;2023-05-10T08:01:14;35.87;;;27.03;;
1258;SDS011;619;51.472;6.628;2023-05-10T08:03:42;29.40;;;23.67;;
1258;SDS011;619;51.472;6.628;2023-05-10T08:06:07;28.90;;;22.83;;
1258;SDS011;619;51.472;6.628;2023-05-10T08:08:36;27.07;;;22.50;;
1258;SDS011;619;51.472;6.628;2023-05-10T08:11:01;27.37;;;21.90;;
1258;SDS011;619;51.472;6.628;2023-05-10T08:13:29;26.43;;;21.30;;
1258;SDS011;619;51.472;6.628;2023-05-10T08:15:56;29.13;;;22.37;;
1258;SDS011;619;51.472;6.628;2023-05-10T08:18:21;31.87;;;25.30;;
1258;SDS011;619;51.472;6.628;2023-05-10T08:20:50;27.43;;;22.73;;
1258;SDS011;619;51.472;6.628;2023-05-10T08:23:17;27.53;;;22.60;;
1258;SDS011;619;51.472;6.628;2023-05-10T08:25:43;29.67;;;24.27;;
1258;SDS011;619;51.472;6.628;2023-05-10T08:28:09;31.50;;;22.47;;
1258;SDS011;619;51.472;6.628;2023-05-10T08:30:39;29.13;;;22.80;;
1258;SDS011;619;51.472;6.628;2023-05-10T08:33:05;27.60;;;22.70;;
1258;SDS011;619;51.472;6.628;2023-05-10T08:35:33;27.40;;;23.57;;
1258;SDS011;619;51.472;6.628;2023-05-10T08:37:59;32.03;;;24.20;;
1258;SDS011;619;51.472;6.628;2023-05-10T08:40:26;27.07;;;22.83;;
1258;SDS011;619;51.472;6.628;2023-05-10T08:42:55;26.53;;;21.30;;
1258;SDS011;619;51.472;6.628;2023-05-10T08:45:36;27.27;;;20.93;;
1258;SDS011;619;51.472;6.628;2023-05-10T08:48:08;28.27;;;22.10;;
1258;SDS011;619;51.472;6.628;2023-05-10T08:50:39;22.50;;;20.03;;
1258;SDS011;619;51.472;6.628;2023-05-10T08:53:12;23.30;;;20.80;;
1258;SDS011;619;51.472;6.628;2023-05-10T08:55:40;22.73;;;19.23;;
1258;SDS011;619;51.472;6.628;2023-05-10T08:58:07;25.47;;;19.37;;
1258;SDS011;619;51.472;6.628;2023-05-10T09:00:38;22.07;;;19.60;;
1258;SDS011;619;51.472;6.628;2023-05-10T09:03:04;23.80;;;19.90;;
1258;SDS011;619;51.472;6.628;2023-05-10T09:05:31;24.07;;;18.87;;
1258;SDS011;619;51.472;6.628;2023-05-10T09:08:01;19.30;;;16.57;;
1258;SDS011;619;51.472;6.628;2023-05-10T09:10:27;18.17;;;14.67;;
1258;SDS011;619;51.472;6.628;2023-05-10T09:12:53;14.90;;;13.37;;
1258;SDS011;619;51.472;6.628;2023-05-10T09:15:21;19.27;;;13.77;;
1258;SDS011;619;51.472;6.628;2023-05-10T09:17:47;16.23;;;14.50;;
1258;SDS011;619;51.472;6.628;2023-05-10T09:20:14;17.47;;;14.37;;
1258;SDS011;619;51.472;6.628;2023-05-10T09:22:43;17.50;;;15.70;;
1258;SDS011;619;51.472;6.628;2023-05-10T09:25:09;18.07;;;15.47;;
1258;SDS011;619;51.472;6.628;2023-05-10T09:27:44;19.47;;;16.60;;
1258;SDS011;619;51.472;6.628;2023-05-10T09:30:33;20.10;;;16.40;;
1258;SDS011;619;51.472;6.628;2023-05-10T09:32:58;21.73;;;17.40;;
1258;SDS011;619;51.472;6.628;2023-05-10T09:35:25;19.97;;;17.87;;
1258;SDS011;619;51.472;6.628;2023-05-10T09:37:53;23.80;;;18.17;;
1258;SDS011;619;51.472;6.628;2023-05-10T09:40:21;20.50;;;18.27;;
1258;SDS011;619;51.472;6.628;2023-05-10T09:45:19;23.13;;;18.30;;
1258;SDS011;619;51.472;6.628;2023-05-10T09:47:45;20.87;;;17.40;;
1258;SDS011;619;51.472;6.628;2023-05-10T09:50:10;18.13;;;16.17;;
1258;SDS011;619;51.472;6.628;2023-05-10T09:52:56;19.80;;;15.73;;
1258;SDS011;619;51.472;6.628;2023-05-10T09:58:12;20.17;;;17.23;;
1258;SDS011;619;51.472;6.628;2023-05-10T10:00:42;19.80;;;16.40;;
1258;SDS011;619;51.472;6.628;2023-05-10T10:03:12;18.00;;;14.93;;
1258;SDS011;619;51.472;6.628;2023-05-10T10:05:41;19.87;;;16.90;;
1258;SDS011;619;51.472;6.628;2023-05-10T10:08:08;18.63;;;15.67;;
1258;SDS011;619;51.472;6.628;2023-05-10T10:10:39;17.97;;;14.53;;
1258;SDS011;619;51.472;6.628;2023-05-10T10:13:10;18.80;;;15.27;;
1258;SDS011;619;51.472;6.628;2023-05-10T10:15:38;15.93;;;14.17;;
1258;SDS011;619;51.472;6.628;2023-05-10T10:18:04;17.43;;;15.40;;
1258;SDS011;619;51.472;6.628;2023-05-10T10:20:30;22.43;;;18.10;;
1258;SDS011;619;51.472;6.628;2023-05-10T10:22:58;22.43;;;18.00;;
1258;SDS011;619;51.472;6.628;2023-05-10T10:25:27;20.23;;;18.13;;
1258;SDS011;619;51.472;6.628;2023-05-10T10:35:54;20.53;;;18.23;;
1258;SDS011;619;51.472;6.628;2023-05-10T10:38:25;21.83;;;18.53;;
1258;SDS011;619;51.472;6.628;2023-05-10T10:44:22;20.27;;;18.20;;
1258;SDS011;619;51.472;6.628;2023-05-10T10:47:03;21.30;;;17.77;;
1258;SDS011;619;51.472;6.628;2023-05-10T10:50:06;20.83;;;18.60;;
1258;SDS011;619;51.472;6.628;2023-05-10T10:52:38;21.30;;;19.10;;
1258;SDS011;619;51.472;6.628;2023-05-10T11:02:48;21.20;;;19.10;;
1258;SDS011;619;51.472;6.628;2023-05-10T11:10:48;19.97;;;17.20;;
1258;SDS011;619;51.472;6.628;2023-05-10T11:15:57;19.80;;;15.27;;
1258;SDS011;619;51.472;6.628;2023-05-10T11:21:01;16.57;;;14.90;;
1258;SDS011;619;51.472;6.628;2023-05-10T11:23:33;21.60;;;14.67;;
1258;SDS011;619;51.472;6.628;2023-05-10T11:26:12;13.33;;;11.93;;
1258;SDS011;619;51.472;6.628;2023-05-10T11:28:42;12.60;;;11.37;;
1258;SDS011;619;51.472;6.628;2023-05-10T11:31:15;11.27;;;10.20;;
1258;SDS011;619;51.472;6.628;2023-05-10T11:33:45;11.47;;;10.30;;
1258;SDS011;619;51.472;6.628;2023-05-10T11:36:16;13.30;;;11.90;;
1258;SDS011;619;51.472;6.628;2023-05-10T11:38:45;13.17;;;11.77;;
1258;SDS011;619;51.472;6.628;2023-05-10T11:41:12;10.90;;;9.77;;
1258;SDS011;619;51.472;6.628;2023-05-10T11:43:38;10.70;;;9.60;;
1258;SDS011;619;51.472;6.628;2023-05-10T11:46:06;9.70;;;8.70;;
1258;SDS011;619;51.472;6.628;2023-05-10T11:48:38;10.57;;;9.47;;
1258;SDS011;619;51.472;6.628;2023-05-10T11:51:04;12.23;;;10.20;;
1258;SDS011;619;51.472;6.628;2023-05-10T11:53:32;10.67;;;9.53;;
1258;SDS011;619;51.472;6.628;2023-05-10T11:56:08;9.80;;;8.80;;
1258;SDS011;619;51.472;6.628;2023-05-10T11:58:37;10.17;;;9.03;;
1258;SDS011;619;51.472;6.628;2023-05-10T12:01:05;9.23;;;8.43;;
1258;SDS011;619;51.472;6.628;2023-05-10T12:03:32;9.10;;;8.20;;
1258;SDS011;619;51.472;6.628;2023-05-10T12:06:01;8.87;;;7.50;;
1258;SDS011;619;51.472;6.628;2023-05-10T12:08:28;12.30;;;9.03;;
1258;SDS011;619;51.472;6.628;2023-05-10T12:11:04;10.93;;;8.40;;
1258;SDS011;619;51.472;6.628;2023-05-10T12:13:38;9.03;;;7.80;;
1258;SDS011;619;51.472;6.628;2023-05-10T12:16:21;9.57;;;8.67;;
1258;SDS011;619;51.472;6.628;2023-05-10T12:18:53;11.60;;;9.50;;
1258;SDS011;619;51.472;6.628;2023-05-10T12:21:23;8.47;;;7.70;;
1258;SDS011;619;51.472;6.628;2023-05-10T12:23:51;8.77;;;7.87;;
1258;SDS011;619;51.472;6.628;2023-05-10T12:26:27;13.50;;;8.63;;
1258;SDS011;619;51.472;6.628;2023-05-10T12:29:10;9.53;;;8.63;;
1258;SDS011;619;51.472;6.628;2023-05-10T12:31:59;13.53;;;7.17;;
1258;SDS011;619;51.472;6.628;2023-05-10T12:34:30;8.87;;;6.90;;
1258;SDS011;619;51.472;6.628;2023-05-10T12:36:58;10.33;;;7.30;;
1258;SDS011;619;51.472;6.628;2023-05-10T12:39:24;8.30;;;7.10;;
1258;SDS011;619;51.472;6.628;2023-05-10T12:42:02;8.60;;;7.80;;
1258;SDS011;619;51.472;6.628;2023-05-10T12:44:30;8.97;;;8.07;;
1258;SDS011;619;51.472;6.628;2023-05-10T12:46:58;8.53;;;7.80;;
1258;SDS011;619;51.472;6.628;2023-05-10T12:49:28;9.00;;;8.20;;
1258;SDS011;619;51.472;6.628;2023-05-10T12:51:56;8.50;;;7.70;;
1258;SDS011;619;51.472;6.628;2023-05-10T12:54:24;6.90;;;6.30;;
1258;SDS011;619;51.472;6.628;2023-05-10T12:56:52;8.60;;;6.70;;
1258;SDS011;619;51.472;6.628;2023-05-10T12:59:20;8.80;;;7.90;;
1258;SDS011;619;51.472;6.628;2023-05-10T13:01:50;8.43;;;7.63;;
1258;SDS011;619;51.472;6.628;2023-05-10T13:04:16;7.77;;;7.07;;
1258;SDS011;619;51.472;6.628;2023-05-10T13:06:41;7.43;;;6.83;;
1258;SDS011;619;51.472;6.628;2023-05-10T13:09:09;7.67;;;6.63;;
1258;SDS011;619;51.472;6.628;2023-05-10T13:11:35;7.50;;;6.80;;
1258;SDS011;619;51.472;6.628;2023-05-10T13:14:01;8.07;;;7.37;;
1258;SDS011;619;51.472;6.628;2023-05-10T13:16:28;7.33;;;6.60;;
1258;SDS011;619;51.472;6.628;2023-05-10T13:18:53;8.20;;;7.40;;
1258;SDS011;619;51.472;6.628;2023-05-10T13:21:19;9.40;;;8.60;;
1258;SDS011;619;51.472;6.628;2023-05-10T13:23:45;7.83;;;7.13;;
1258;SDS011;619;51.472;6.628;2023-05-10T13:26:11;8.67;;;7.63;;
1258;SDS011;619;51.472;6.628;2023-05-10T13:28:37;8.20;;;7.50;;
1258;SDS011;619;51.472;6.628;2023-05-10T13:31:03;7.80;;;6.93;;
1258;SDS011;619;51.472;6.628;2023-05-10T13:33:29;8.17;;;7.43;;
1258;SDS011;619;51.472;6.628;2023-05-10T13:35:55;7.77;;;7.07;;
1258;SDS011;619;51.472;6.628;2023-05-10T13:38:21;8.00;;;7.20;;
1258;SDS011;619;51.472;6.628;2023-05-10T13:40:53;8.63;;;7.73;;
1258;SDS011;619;51.472;6.628;2023-05-10T13:43:21;9.20;;;8.40;;
1258;SDS011;619;51.472;6.628;2023-05-10T13:45:48;8.83;;;7.97;;
1258;SDS011;619;51.472;6.628;2023-05-10T13:48:17;10.87;;;9.87;;
1258;SDS011;619;51.472;6.628;2023-05-10T13:50:45;10.83;;;9.93;;
1258;SDS011;619;51.472;6.628;2023-05-10T13:53:13;9.20;;;8.40;;
1258;SDS011;619;51.472;6.628;2023-05-10T13:55:39;8.60;;;7.90;;
1258;SDS011;619;51.472;6.628;2023-05-10T13:58:07;9.60;;;8.60;;
1258;SDS011;619;51.472;6.628;2023-05-10T14:00:33;10.20;;;9.23;;
1258;SDS011;619;51.472;6.628;2023-05-10T14:03:03;10.00;;;9.10;;
1258;SDS011;619;51.472;6.628;2023-05-10T14:05:30;10.17;;;9.37;;
1258;SDS011;619;51.472;6.628;2023-05-10T14:07:55;9.57;;;8.77;;
1258;SDS011;619;51.472;6.628;2023-05-10T14:10:24;10.27;;;9.47;;
1258;SDS011;619;51.472;6.628;2023-05-10T14:12:52;11.40;;;10.50;;
1258;SDS011;619;51.472;6.628;2023-05-10T14:15:17;10.03;;;9.13;;
1258;SDS011;619;51.472;6.628;2023-05-10T14:17:43;11.13;;;10.20;;
1258;SDS011;619;51.472;6.628;2023-05-10T14:20:11;11.40;;;10.23;;
1258;SDS011;619;51.472;6.628;2023-05-10T14:22:36;11.93;;;10.93;;
1258;SDS011;619;51.472;6.628;2023-05-10T14:25:02;10.87;;;10.07;;
1258;SDS011;619;51.472;6.628;2023-05-10T14:27:28;11.87;;;10.77;;
1258;SDS011;619;51.472;6.628;2023-05-10T14:29:53;11.97;;;10.87;;
1258;SDS011;619;51.472;6.628;2023-05-10T14:32:21;12.83;;;11.80;;
1258;SDS011;619;51.472;6.628;2023-05-10T14:34:47;14.07;;;12.50;;
1258;SDS011;619;51.472;6.628;2023-05-10T14:37:13;14.20;;;12.80;;
1258;SDS011;619;51.472;6.628;2023-05-10T14:39:42;13.40;;;12.20;;
1258;SDS011;619;51.472;6.628;2023-05-10T14:42:08;13.10;;;11.80;;
1258;SDS011;619;51.472;6.628;2023-05-10T14:44:33;12.17;;;11.07;;
1258;SDS011;619;51.472;6.628;2023-05-10T14:46:59;16.10;;;14.70;;
1258;SDS011;619;51.472;6.628;2023-05-10T14:49:27;15.40;;;13.93;;
1258;SDS011;619;51.472;6.628;2023-05-10T14:51:55;15.57;;;14.17;;
1258;SDS011;619;51.472;6.628;2023-05-10T14:54:23;14.30;;;13.00;;
1258;SDS011;619;51.472;6.628;2023-05-10T14:56:49;10.20;;;9.30;;
1258;SDS011;619;51.472;6.628;2023-05-10T14:59:15;6.20;;;5.33;;
1258;SDS011;619;51.472;6.628;2023-05-10T15:01:42;3.83;;;3.43;;
1258;SDS011;619;51.472;6.628;2023-05-10T15:04:12;2.60;;;2.17;;
1258;SDS011;619;51.472;6.628;2023-05-10T15:06:41;2.53;;;2.30;;
1258;SDS011;619;51.472;6.628;2023-05-10T15:09:06;2.50;;;2.07;;
1258;SDS011;619;51.472;6.628;2023-05-10T15:11:32;3.73;;;2.53;;
1258;SDS011;619;51.472;6.628;2023-05-10T15:13:57;4.67;;;3.00;;
1258;SDS011;619;51.472;6.628;2023-05-10T15:16:25;3.33;;;3.03;;
1258;SDS011;619;51.472;6.628;2023-05-10T15:18:53;3.20;;;2.67;;
1258;SDS011;619;51.472;6.628;2023-05-10T15:21:21;6.97;;;3.20;;
1258;SDS011;619;51.472;6.628;2023-05-10T15:23:49;4.53;;;4.13;;
1258;SDS011;619;51.472;6.628;2023-05-10T15:26:15;4.00;;;3.50;;
1258;SDS011;619;51.472;6.628;2023-05-10T15:28:41;3.60;;;3.20;;
1258;SDS011;619;51.472;6.628;2023-05-10T15:31:06;5.00;;;3.63;;
1258;SDS011;619;51.472;6.628;2023-05-10T15:33:32;5.53;;;4.13;;
1258;SDS011;619;51.472;6.628;2023-05-10T15:36:01;5.43;;;4.43;;
1258;SDS011;619;51.472;6.628;2023-05-10T15:38:28;7.53;;;4.93;;
1258;SDS011;619;51.472;6.628;2023-05-10T15:40:56;10.47;;;5.20;;
1258;SDS011;619;51.472;6.628;2023-05-10T15:43:23;5.00;;;4.50;;
1258;SDS011;619;51.472;6.628;2023-05-10T15:45:48;5.83;;;5.17;;
1258;SDS011;619;51.472;6.628;2023-05-10T15:48:16;6.73;;;6.03;;
1258;SDS011;619;51.472;6.628;2023-05-10T15:50:42;9.00;;;5.93;;
1258;SDS011;619;51.472;6.628;2023-05-10T15:53:07;7.73;;;5.93;;
1258;SDS011;619;51.472;6.628;2023-05-10T15:55:35;9.83;;;8.83;;
1258;SDS011;619;51.472;6.628;2023-05-10T15:58:01;8.90;;;6.60;;
1258;SDS011;619;51.472;6.628;2023-05-10T16:00:29;8.57;;;6.90;;
1258;SDS011;619;51.472;6.628;2023-05-10T16:02:55;7.53;;;6.90;;
1258;SDS011;619;51.472;6.628;2023-05-10T16:05:23;7.77;;;6.67;;
1258;SDS011;619;51.472;6.628;2023-05-10T16:07:48;9.23;;;7.80;;
1258;SDS011;619;51.472;6.628;2023-05-10T16:10:14;8.10;;;7.40;;
1258;SDS011;619;51.472;6.628;2023-05-10T16:12:40;11.43;;;8.30;;
1258;SDS011;619;51.472;6.628;2023-05-10T16:15:06;9.43;;;8.07;;